sensor_id;sensor_type;location;lat;lon;timestamp;pressure;altitude;pressure_sealevel;temperature;humidity
7760;BME280;3924;48.830;9.262;2023-02-27T00:00:07;99061.75;;;-1.32;67.49
7760;BME280;3924;48.830;9.262;2023-02-27T00:02:47;99066.03;;;-1.38;67.24
7760;BME280;3924;48.830;9.262;2023-02-27T00:05:14;99067.69;;;-1.44;67.56
7760;BME280;3924;48.830;9.262;2023-02-27T00:07:41;99060.09;;;-1.47;67.76
7760;BME280;3924;48.830;9.262;2023-02-27T00:10:09;99067.47;;;-1.42;67.90
7760;BME280;3924;48.830;9.262;2023-02-27T00:12:36;99069.94;;;-1.41;67.68
7760;BME280;3924;48.830;9.262;2023-02-27T00:15:23;99064.41;;;-1.46;67.75
7760;BME280;3924;48.830;9.262;2023-02-27T00:17:49;99059.28;;;-1.47;68.07
7760;BME280;3924;48.830;9.262;2023-02-27T00:20:17;99052.94;;;-1.53;67.88
7760;BME280;3924;48.830;9.262;2023-02-27T00:22:45;99050.69;;;-1.56;67.87
7760;BME280;3924;48.830;9.262;2023-02-27T00:25:12;99053.97;;;-1.54;68.12
7760;BME280;3924;48.830;9.262;2023-02-27T00:27:39;99061.72;;;-1.52;68.05
7760;BME280;3924;48.830;9.262;2023-02-27T00:30:08;99060.09;;;-1.47;68.14
7760;BME280;3924;48.830;9.262;2023-02-27T00:32:35;99050.06;;;-1.51;68.37
7760;BME280;3924;48.830;9.262;2023-02-27T00:35:06;99060.53;;;-1.50;68.13
7760;BME280;3924;48.830;9.262;2023-02-27T00:37:35;99057.22;;;-1.52;68.25
7760;BME280;3924;48.830;9.262;2023-02-27T00:40:02;99057.66;;;-1.55;68.28
7760;BME280;3924;48.830;9.262;2023-02-27T00:42:31;99060.53;;;-1.50;68.43
7760;BME280;3924;48.830;9.262;2023-02-27T00:44:57;99060.91;;;-1.53;68.42
7760;BME280;3924;48.830;9.262;2023-02-27T00:47:24;99058.03;;;-1.58;68.47
7760;BME280;3924;48.830;9.262;2023-02-27T00:49:51;99058.44;;;-1.61;68.20
7760;BME280;3924;48.830;9.262;2023-02-27T00:52:17;99060.91;;;-1.59;68.54
7760;BME280;3924;48.830;9.262;2023-02-27T00:54:44;99054.97;;;-1.61;68.77
7760;BME280;3924;48.830;9.262;2023-02-27T00:57:11;99051.47;;;-1.69;68.76
7760;BME280;3924;48.830;9.262;2023-02-27T00:59:38;99064.78;;;-1.62;68.98
7760;BME280;3924;48.830;9.262;2023-02-27T01:02:05;99060.88;;;-1.66;68.71
7760;BME280;3924;48.830;9.262;2023-02-27T01:04:32;99053.53;;;-1.64;68.81
7760;BME280;3924;48.830;9.262;2023-02-27T01:06:59;99067.66;;;-1.63;68.90
7760;BME280;3924;48.830;9.262;2023-02-27T01:09:25;99063.53;;;-1.66;68.73
7760;BME280;3924;48.830;9.262;2023-02-27T01:11:53;99065.59;;;-1.68;68.96
7760;BME280;3924;48.830;9.262;2023-02-27T01:14:20;99056.78;;;-1.75;68.98
7760;BME280;3924;48.830;9.262;2023-02-27T01:16:47;99064.16;;;-1.71;69.04
7760;BME280;3924;48.830;9.262;2023-02-27T01:19:14;99051.88;;;-1.72;69.05
7760;BME280;3924;48.830;9.262;2023-02-27T01:21:41;99048.59;;;-1.74;69.13
7760;BME280;3924;48.830;9.262;2023-02-27T01:24:08;99054.13;;;-1.69;68.92
7760;BME280;3924;48.830;9.262;2023-02-27T01:26:35;99060.50;;;-1.63;69.17
7760;BME280;3924;48.830;9.262;2023-02-27T01:29:02;99046.56;;;-1.65;69.10
7760;BME280;3924;48.830;9.262;2023-02-27T01:31:32;99048.63;;;-1.67;69.05
7760;BME280;3924;48.830;9.262;2023-02-27T01:33:59;99059.47;;;-1.62;69.15
7760;BME280;3924;48.830;9.262;2023-02-27T01:36:26;99038.78;;;-1.73;69.10
7760;BME280;3924;48.830;9.262;2023-02-27T01:38:54;99042.09;;;-1.71;69.23
7760;BME280;3924;48.830;9.262;2023-02-27T01:41:21;99054.34;;;-1.70;69.34
7760;BME280;3924;48.830;9.262;2023-02-27T01:46:25;99042.88;;;-1.77;69.49
7760;BME280;3924;48.830;9.262;2023-02-27T01:48:56;99041.63;;;-1.81;69.56
7760;BME280;3924;48.830;9.262;2023-02-27T01:51:29;99053.50;;;-1.77;69.71
7760;BME280;3924;48.830;9.262;2023-02-27T01:53:57;99041.84;;;-1.83;69.80
7760;BME280;3924;48.830;9.262;2023-02-27T01:56:28;99051.44;;;-1.82;69.69
7760;BME280;3924;48.830;9.262;2023-02-27T01:58:58;99042.44;;;-1.81;69.93
7760;BME280;3924;48.830;9.262;2023-02-27T02:01:26;99044.72;;;-1.84;69.67
7760;BME280;3924;48.830;9.262;2023-02-27T02:06:23;99032.25;;;-1.84;69.87
7760;BME280;3924;48.830;9.262;2023-02-27T02:08:52;99041.63;;;-1.81;69.76
7760;BME280;3924;48.830;9.262;2023-02-27T02:11:21;99043.28;;;-1.80;69.82
7760;BME280;3924;48.830;9.262;2023-02-27T02:13:52;99040.63;;;-1.80;69.98
7760;BME280;3924;48.830;9.262;2023-02-27T02:19:37;99025.31;;;-1.78;69.94
7760;BME280;3924;48.830;9.262;2023-02-27T02:42:25;99035.72;;;-1.77;70.12
7760;BME280;3924;48.830;9.262;2023-02-27T02:45:16;99048.19;;;-1.77;70.33
7760;BME280;3924;48.830;9.262;2023-02-27T02:47:51;99040.22;;;-1.77;70.32
7760;BME280;3924;48.830;9.262;2023-02-27T02:50:29;99040.22;;;-1.77;70.39
7760;BME280;3924;48.830;9.262;2023-02-27T02:53:14;99040.00;;;-1.82;70.39
7760;BME280;3924;48.830;9.262;2023-02-27T02:56:28;99041.44;;;-1.80;70.41
7760;BME280;3924;48.830;9.262;2023-02-27T02:58:59;99047.16;;;-1.83;70.57
7760;BME280;3924;48.830;9.262;2023-02-27T03:01:45;99044.06;;;-1.86;70.60
7760;BME280;3924;48.830;9.262;2023-02-27T03:04:26;99057.19;;;-1.78;70.52
7760;BME280;3924;48.830;9.262;2023-02-27T03:07:02;99051.25;;;-1.80;70.57
7760;BME280;3924;48.830;9.262;2023-02-27T03:09:39;99047.97;;;-1.82;70.55
7760;BME280;3924;48.830;9.262;2023-02-27T03:12:09;99044.72;;;-1.84;70.70
7760;BME280;3924;48.830;9.262;2023-02-27T03:14:53;99042.44;;;-1.87;70.64
7760;BME280;3924;48.830;9.262;2023-02-27T03:17:28;99046.56;;;-1.85;70.83
7760;BME280;3924;48.830;9.262;2023-02-27T03:20:03;99046.56;;;-1.85;70.77
7760;BME280;3924;48.830;9.262;2023-02-27T03:22:37;99047.97;;;-1.82;70.71
7760;BME280;3924;48.830;9.262;2023-02-27T03:25:08;99048.59;;;-1.80;70.75
7760;BME280;3924;48.830;9.262;2023-02-27T03:27:39;99056.16;;;-1.84;70.78
7760;BME280;3924;48.830;9.262;2023-02-27T03:35:51;99063.69;;;-1.87;71.02
7760;BME280;3924;48.830;9.262;2023-02-27T03:38:50;99064.13;;;-1.84;70.96
7760;BME280;3924;48.830;9.262;2023-02-27T03:46:35;99056.34;;;-1.85;71.00
7760;BME280;3924;48.830;9.262;2023-02-27T03:49:03;99076.19;;;-1.81;71.42
7760;BME280;3924;48.830;9.262;2023-02-27T03:51:30;99069.81;;;-1.87;71.32
7760;BME280;3924;48.830;9.262;2023-02-27T03:54:10;99072.47;;;-1.87;71.09
7760;BME280;3924;48.830;9.262;2023-02-27T03:56:41;99077.38;;;-1.90;71.37
7760;BME280;3924;48.830;9.262;2023-02-27T03:59:09;99072.88;;;-1.90;71.29
7760;BME280;3924;48.830;9.262;2023-02-27T04:01:36;99074.09;;;-1.93;71.41
7760;BME280;3924;48.830;9.262;2023-02-27T04:04:08;99083.88;;;-2.00;71.48
7760;BME280;3924;48.830;9.262;2023-02-27T04:06:37;99089.00;;;-1.98;71.61
7760;BME280;3924;48.830;9.262;2023-02-27T04:12:35;99084.50;;;-2.04;71.52
7760;BME280;3924;48.830;9.262;2023-02-27T04:15:28;99090.00;;;-2.06;71.85
7760;BME280;3924;48.830;9.262;2023-02-27T04:18:08;99087.72;;;-2.09;71.85
7760;BME280;3924;48.830;9.262;2023-02-27T04:21:40;99080.78;;;-2.10;71.73
7760;BME280;3924;48.830;9.262;2023-02-27T04:26:37;99088.56;;;-2.02;71.78
7760;BME280;3924;48.830;9.262;2023-02-27T04:29:21;99086.94;;;-2.03;71.85
7760;BME280;3924;48.830;9.262;2023-02-27T04:31:57;99093.69;;;-2.00;71.83
7760;BME280;3924;48.830;9.262;2023-02-27T04:34:33;99088.56;;;-2.02;72.01
7760;BME280;3924;48.830;9.262;2023-02-27T04:37:07;99077.91;;;-2.08;71.72
7760;BME280;3924;48.830;9.262;2023-02-27T04:39:42;99084.03;;;-2.08;71.90
7760;BME280;3924;48.830;9.262;2023-02-27T04:42:14;99088.53;;;-2.08;72.12
7760;BME280;3924;48.830;9.262;2023-02-27T04:44:42;99089.34;;;-2.08;72.16
7760;BME280;3924;48.830;9.262;2023-02-27T04:47:11;99086.47;;;-2.13;72.11
7760;BME280;3924;48.830;9.262;2023-02-27T04:49:46;99094.66;;;-2.08;72.05
7760;BME280;3924;48.830;9.262;2023-02-27T04:55:12;99093.84;;;-2.08;72.21
7760;BME280;3924;48.830;9.262;2023-02-27T04:57:46;99077.09;;;-2.09;72.24
7760;BME280;3924;48.830;9.262;2023-02-27T05:00:15;99087.72;;;-2.09;72.24
7760;BME280;3924;48.830;9.262;2023-02-27T05:02:48;99093.84;;;-2.08;72.25
7760;BME280;3924;48.830;9.262;2023-02-27T05:05:25;99087.31;;;-2.12;71.99
7760;BME280;3924;48.830;9.262;2023-02-27T05:07:58;99088.13;;;-2.12;72.30
7760;BME280;3924;48.830;9.262;2023-02-27T05:10:49;99090.59;;;-2.10;72.34
7760;BME280;3924;48.830;9.262;2023-02-27T05:13:20;99095.28;;;-2.12;72.26
7760;BME280;3924;48.830;9.262;2023-02-27T05:15:54;99099.94;;;-2.14;72.42
7760;BME280;3924;48.830;9.262;2023-02-27T05:18:23;99097.91;;;-2.19;72.22
7760;BME280;3924;48.830;9.262;2023-02-27T05:21:30;99106.88;;;-2.20;72.55
7760;BME280;3924;48.830;9.262;2023-02-27T05:24:23;99106.44;;;-2.24;72.62
7760;BME280;3924;48.830;9.262;2023-02-27T05:30:05;99115.22;;;-2.23;72.65
7760;BME280;3924;48.830;9.262;2023-02-27T05:32:55;99116.63;;;-2.27;72.60
7760;BME280;3924;48.830;9.262;2023-02-27T05:38:16;99121.81;;;-2.19;72.60
7760;BME280;3924;48.830;9.262;2023-02-27T05:40:56;99123.03;;;-2.15;72.77
7760;BME280;3924;48.830;9.262;2023-02-27T05:43:31;99123.66;;;-2.13;72.61
7760;BME280;3924;48.830;9.262;2023-02-27T05:46:04;99125.28;;;-2.18;72.54
7760;BME280;3924;48.830;9.262;2023-02-27T05:48:38;99121.56;;;-2.24;72.69
7760;BME280;3924;48.830;9.262;2023-02-27T05:51:07;99125.84;;;-2.23;72.79
7760;BME280;3924;48.830;9.262;2023-02-27T05:53:40;99133.41;;;-2.20;72.92
7760;BME280;3924;48.830;9.262;2023-02-27T05:56:11;99134.63;;;-2.23;72.86
7760;BME280;3924;48.830;9.262;2023-02-27T05:58:50;99132.97;;;-2.30;73.01
7760;BME280;3924;48.830;9.262;2023-02-27T06:01:19;99131.56;;;-2.26;73.04
7760;BME280;3924;48.830;9.262;2023-02-27T06:03:46;99130.31;;;-2.30;72.93
7760;BME280;3924;48.830;9.262;2023-02-27T06:06:18;99123.16;;;-2.30;72.91
7760;BME280;3924;48.830;9.262;2023-02-27T06:08:45;99127.25;;;-2.27;73.03
7760;BME280;3924;48.830;9.262;2023-02-27T06:11:12;99128.91;;;-2.26;73.04
7760;BME280;3924;48.830;9.262;2023-02-27T06:13:39;99128.91;;;-2.26;72.96
7760;BME280;3924;48.830;9.262;2023-02-27T06:16:09;99142.19;;;-2.26;72.90
7760;BME280;3924;48.830;9.262;2023-02-27T06:18:36;99135.16;;;-2.34;73.04
7760;BME280;3924;48.830;9.262;2023-02-27T06:21:03;99137.81;;;-2.34;73.18
7760;BME280;3924;48.830;9.262;2023-02-27T06:23:30;99142.16;;;-2.33;73.18
7760;BME280;3924;48.830;9.262;2023-02-27T06:25:56;99143.13;;;-2.34;73.20
7760;BME280;3924;48.830;9.262;2023-02-27T06:28:23;99142.31;;;-2.34;73.31
7760;BME280;3924;48.830;9.262;2023-02-27T06:30:54;99158.91;;;-2.32;73.10
7760;BME280;3924;48.830;9.262;2023-02-27T06:33:23;99154.19;;;-2.30;73.14
7760;BME280;3924;48.830;9.262;2023-02-27T06:35:51;99152.56;;;-2.31;73.19
7760;BME280;3924;48.830;9.262;2023-02-27T06:38:18;99160.78;;;-2.26;73.14
7760;BME280;3924;48.830;9.262;2023-02-27T06:40:45;99154.44;;;-2.25;73.09
7760;BME280;3924;48.830;9.262;2023-02-27T06:43:11;99153.81;;;-2.27;73.28
7760;BME280;3924;48.830;9.262;2023-02-27T06:45:38;99152.41;;;-2.23;73.15
7760;BME280;3924;48.830;9.262;2023-02-27T06:48:04;99153.66;;;-2.19;73.38
7760;BME280;3924;48.830;9.262;2023-02-27T06:50:31;99149.38;;;-2.13;73.19
7760;BME280;3924;48.830;9.262;2023-02-27T06:52:58;99151.25;;;-2.07;73.31
7760;BME280;3924;48.830;9.262;2023-02-27T06:55:24;99151.91;;;-2.05;73.13
7760;BME280;3924;48.830;9.262;2023-02-27T06:57:51;99160.09;;;-2.00;72.92
7760;BME280;3924;48.830;9.262;2023-02-27T07:00:18;99161.53;;;-1.98;73.04
7760;BME280;3924;48.830;9.262;2023-02-27T07:02:44;99167.72;;;-1.90;73.13
7760;BME280;3924;48.830;9.262;2023-02-27T07:05:11;99168.13;;;-1.87;72.85
7760;BME280;3924;48.830;9.262;2023-02-27T07:07:37;99161.41;;;-1.83;72.93
7760;BME280;3924;48.830;9.262;2023-02-27T07:10:10;99167.78;;;-1.77;72.85
7760;BME280;3924;48.830;9.262;2023-02-27T07:12:38;99163.06;;;-1.75;72.94
7760;BME280;3924;48.830;9.262;2023-02-27T07:15:06;99175.38;;;-1.68;72.79
7760;BME280;3924;48.830;9.262;2023-02-27T07:17:33;99166.78;;;-1.70;72.73
7760;BME280;3924;48.830;9.262;2023-02-27T07:19:59;99176.22;;;-1.60;72.63
7760;BME280;3924;48.830;9.262;2023-02-27T07:22:26;99178.69;;;-1.52;72.36
7760;BME280;3924;48.830;9.262;2023-02-27T07:24:52;99179.94;;;-1.48;72.41
7760;BME280;3924;48.830;9.262;2023-02-27T07:27:19;99181.19;;;-1.38;72.50
7760;BME280;3924;48.830;9.262;2023-02-27T07:29:45;99180.41;;;-1.31;72.31
7760;BME280;3924;48.830;9.262;2023-02-27T07:32:12;99178.16;;;-1.28;72.31
7760;BME280;3924;48.830;9.262;2023-02-27T07:34:38;99182.47;;;-1.20;71.96
7760;BME280;3924;48.830;9.262;2023-02-27T07:37:05;99185.38;;;-1.15;71.96
7760;BME280;3924;48.830;9.262;2023-02-27T07:39:31;99175.34;;;-1.13;71.99
7760;BME280;3924;48.830;9.262;2023-02-27T07:41:58;99183.94;;;-1.04;72.13
7760;BME280;3924;48.830;9.262;2023-02-27T07:44:25;99184.16;;;-0.99;72.06
7760;BME280;3924;48.830;9.262;2023-02-27T07:46:51;99184.97;;;-0.92;71.80
7760;BME280;3924;48.830;9.262;2023-02-27T07:49:18;99175.75;;;-0.90;71.57
7760;BME280;3924;48.830;9.262;2023-02-27T07:51:44;99187.44;;;-0.84;71.71
7760;BME280;3924;48.830;9.262;2023-02-27T07:54:11;99178.88;;;-0.79;71.51
7760;BME280;3924;48.830;9.262;2023-02-27T07:56:38;99182.13;;;-0.77;71.48
7760;BME280;3924;48.830;9.262;2023-02-27T07:59:04;99182.94;;;-0.70;71.40
7760;BME280;3924;48.830;9.262;2023-02-27T08:01:31;99182.94;;;-0.70;71.39
7760;BME280;3924;48.830;9.262;2023-02-27T08:03:57;99176.00;;;-0.71;71.36
7760;BME280;3924;48.830;9.262;2023-02-27T08:06:24;99186.44;;;-0.63;71.33
7760;BME280;3924;48.830;9.262;2023-02-27T08:08:51;99188.72;;;-0.60;71.17
7760;BME280;3924;48.830;9.262;2023-02-27T08:11:18;99186.22;;;-0.55;71.12
7760;BME280;3924;48.830;9.262;2023-02-27T08:13:45;99172.91;;;-0.48;71.10
7760;BME280;3924;48.830;9.262;2023-02-27T08:16:28;99169.84;;;-0.45;70.77
7760;BME280;3924;48.830;9.262;2023-02-27T08:18:56;99179.91;;;-0.34;70.71
7760;BME280;3924;48.830;9.262;2023-02-27T08:21:23;99179.84;;;-0.28;70.74
7760;BME280;3924;48.830;9.262;2023-02-27T08:23:50;99174.75;;;-0.22;70.60
7760;BME280;3924;48.830;9.262;2023-02-27T08:26:16;99182.50;;;-0.14;70.48
7760;BME280;3924;48.830;9.262;2023-02-27T08:28:43;99181.28;;;-0.12;70.45
7760;BME280;3924;48.830;9.262;2023-02-27T08:31:10;99180.84;;;-0.02;70.31
7760;BME280;3924;48.830;9.262;2023-02-27T08:33:36;99183.72;;;0.03;70.23
7760;BME280;3924;48.830;9.262;2023-02-27T08:36:03;99178.78;;;0.07;69.98
7760;BME280;3924;48.830;9.262;2023-02-27T08:38:30;99182.28;;;0.07;69.74
7760;BME280;3924;48.830;9.262;2023-02-27T08:40:56;99187.19;;;0.10;69.92
7760;BME280;3924;48.830;9.262;2023-02-27T08:43:23;99188.41;;;0.14;69.80
7760;BME280;3924;48.830;9.262;2023-02-27T08:45:50;99182.66;;;0.17;69.77
7760;BME280;3924;48.830;9.262;2023-02-27T08:48:17;99193.06;;;0.25;69.68
7760;BME280;3924;48.830;9.262;2023-02-27T08:50:45;99193.50;;;0.29;69.37
7760;BME280;3924;48.830;9.262;2023-02-27T08:53:12;99195.50;;;0.34;69.36
7760;BME280;3924;48.830;9.262;2023-02-27T08:55:38;99187.09;;;0.37;68.95
7760;BME280;3924;48.830;9.262;2023-02-27T08:58:05;99195.28;;;0.42;69.20
7760;BME280;3924;48.830;9.262;2023-02-27T09:00:32;99198.75;;;0.49;68.97
7760;BME280;3924;48.830;9.262;2023-02-27T09:02:58;99198.50;;;0.57;68.94
7760;BME280;3924;48.830;9.262;2023-02-27T09:05:27;99200.94;;;0.65;68.70
7760;BME280;3924;48.830;9.262;2023-02-27T09:07:55;99202.75;;;0.71;68.25
7760;BME280;3924;48.830;9.262;2023-02-27T09:10:22;99206.81;;;0.80;68.30
7760;BME280;3924;48.830;9.262;2023-02-27T09:12:48;99202.69;;;0.85;68.15
7760;BME280;3924;48.830;9.262;2023-02-27T09:15:15;99203.47;;;0.92;68.06
7760;BME280;3924;48.830;9.262;2023-02-27T09:17:42;99200.16;;;0.96;67.92
7760;BME280;3924;48.830;9.262;2023-02-27T09:20:11;99197.44;;;1.03;67.78
7760;BME280;3924;48.830;9.262;2023-02-27T09:22:38;99204.53;;;1.16;67.24
7760;BME280;3924;48.830;9.262;2023-02-27T09:25:05;99199.97;;;1.23;67.00
7760;BME280;3924;48.830;9.262;2023-02-27T09:27:32;99212.06;;;1.32;67.05
7760;BME280;3924;48.830;9.262;2023-02-27T09:29:58;99197.06;;;1.31;67.06
7760;BME280;3924;48.830;9.262;2023-02-27T09:32:26;99199.84;;;1.43;66.77
7760;BME280;3924;48.830;9.262;2023-02-27T09:34:52;99202.84;;;1.53;66.50
7760;BME280;3924;48.830;9.262;2023-02-27T09:37:19;99202.56;;;1.61;66.14
7760;BME280;3924;48.830;9.262;2023-02-27T09:39:45;99203.34;;;1.68;66.22
7760;BME280;3924;48.830;9.262;2023-02-27T09:44:50;99199.97;;;1.79;65.70
7760;BME280;3924;48.830;9.262;2023-02-27T09:50:03;99197.75;;;1.95;65.34
7760;BME280;3924;48.830;9.262;2023-02-27T09:52:31;99197.63;;;2.08;65.20
7760;BME280;3924;48.830;9.262;2023-02-27T09:54:59;99201.75;;;2.04;65.08
7760;BME280;3924;48.830;9.262;2023-02-27T09:57:36;99206.81;;;1.94;65.13
7760;BME280;3924;48.830;9.262;2023-02-27T10:00:26;99210.69;;;2.16;64.77
7760;BME280;3924;48.830;9.262;2023-02-27T10:03:32;99200.28;;;2.26;64.55
7760;BME280;3924;48.830;9.262;2023-02-27T10:06:17;99208.63;;;2.36;64.16
7760;BME280;3924;48.830;9.262;2023-02-27T10:08:50;99207.66;;;2.49;63.74
7760;BME280;3924;48.830;9.262;2023-02-27T10:14:42;99210.25;;;2.56;63.65
7760;BME280;3924;48.830;9.262;2023-02-27T10:17:17;99214.63;;;2.68;63.36
7760;BME280;3924;48.830;9.262;2023-02-27T10:19:47;99204.91;;;2.56;63.14
7760;BME280;3924;48.830;9.262;2023-02-27T10:22:19;99216.59;;;2.43;63.21
7760;BME280;3924;48.830;9.262;2023-02-27T10:24:58;99222.31;;;2.28;63.50
7760;BME280;3924;48.830;9.262;2023-02-27T10:27:25;99218.06;;;2.21;63.35
7760;BME280;3924;48.830;9.262;2023-02-27T10:30:17;99223.19;;;2.22;63.28
7760;BME280;3924;48.830;9.262;2023-02-27T10:35:45;99221.13;;;2.61;62.38
7760;BME280;3924;48.830;9.262;2023-02-27T10:38:32;99212.91;;;2.74;62.11
7760;BME280;3924;48.830;9.262;2023-02-27T10:41:00;99221.63;;;2.69;62.19
7760;BME280;3924;48.830;9.262;2023-02-27T10:43:28;99227.94;;;2.75;61.67
7760;BME280;3924;48.830;9.262;2023-02-27T10:45:55;99228.16;;;2.73;61.80
7760;BME280;3924;48.830;9.262;2023-02-27T10:48:22;99229.25;;;2.84;61.46
7760;BME280;3924;48.830;9.262;2023-02-27T10:50:49;99230.72;;;2.98;61.27
7760;BME280;3924;48.830;9.262;2023-02-27T10:53:25;99218.72;;;3.31;60.48
7760;BME280;3924;48.830;9.262;2023-02-27T10:55:59;99227.88;;;3.53;60.12
7760;BME280;3924;48.830;9.262;2023-02-27T10:58:29;99226.47;;;3.63;59.42
7760;BME280;3924;48.830;9.262;2023-02-27T11:01:02;99230.75;;;3.40;59.91
7760;BME280;3924;48.830;9.262;2023-02-27T11:03:38;99232.31;;;3.18;60.06
7760;BME280;3924;48.830;9.262;2023-02-27T11:06:25;99216.16;;;3.24;59.89
7760;BME280;3924;48.830;9.262;2023-02-27T11:09:18;99222.03;;;3.56;59.05
7760;BME280;3924;48.830;9.262;2023-02-27T11:11:49;99214.16;;;4.08;58.19
7760;BME280;3924;48.830;9.262;2023-02-27T11:16:51;99210.25;;;4.51;56.60
7760;BME280;3924;48.830;9.262;2023-02-27T11:19:36;99215.03;;;4.49;56.54
7760;BME280;3924;48.830;9.262;2023-02-27T11:22:12;99213.56;;;4.06;56.92
7760;BME280;3924;48.830;9.262;2023-02-27T11:24:40;99209.47;;;3.69;57.49
7760;BME280;3924;48.830;9.262;2023-02-27T11:27:20;99207.59;;;3.58;57.63
7760;BME280;3924;48.830;9.262;2023-02-27T11:32:42;99211.47;;;3.73;56.77
7760;BME280;3924;48.830;9.262;2023-02-27T11:35:25;99207.38;;;3.71;56.54
7760;BME280;3924;48.830;9.262;2023-02-27T11:37:55;99199.91;;;4.20;55.89
7760;BME280;3924;48.830;9.262;2023-02-27T11:40:29;99192.94;;;4.59;55.10
7760;BME280;3924;48.830;9.262;2023-02-27T11:43:02;99187.63;;;4.47;54.79
7760;BME280;3924;48.830;9.262;2023-02-27T11:45:39;99193.81;;;4.36;55.12
7760;BME280;3924;48.830;9.262;2023-02-27T11:48:29;99192.19;;;4.47;54.68
7760;BME280;3924;48.830;9.262;2023-02-27T11:51:01;99189.69;;;4.57;54.49
7760;BME280;3924;48.830;9.262;2023-02-27T11:56:19;99188.22;;;5.06;53.22
7760;BME280;3924;48.830;9.262;2023-02-27T11:58:54;99183.91;;;5.51;52.70
7760;BME280;3924;48.830;9.262;2023-02-27T12:01:30;99187.97;;;5.36;52.63
7760;BME280;3924;48.830;9.262;2023-02-27T12:04:09;99194.31;;;5.30;52.81
7760;BME280;3924;48.830;9.262;2023-02-27T12:06:48;99180.63;;;5.48;52.28
7760;BME280;3924;48.830;9.262;2023-02-27T12:09:29;99178.34;;;5.74;51.86
7760;BME280;3924;48.830;9.262;2023-02-27T12:12:00;99189.78;;;5.98;51.12
7760;BME280;3924;48.830;9.262;2023-02-27T12:14:39;99178.25;;;6.19;50.62
7760;BME280;3924;48.830;9.262;2023-02-27T12:17:23;99183.31;;;6.38;50.33
7760;BME280;3924;48.830;9.262;2023-02-27T12:22:47;99178.00;;;6.43;50.22
7760;BME280;3924;48.830;9.262;2023-02-27T12:25:29;99164.72;;;6.58;49.87
7760;BME280;3924;48.830;9.262;2023-02-27T12:28:36;99161.41;;;6.51;49.76
7760;BME280;3924;48.830;9.262;2023-02-27T12:33:59;99167.22;;;6.65;49.79
7760;BME280;3924;48.830;9.262;2023-02-27T12:36:27;99163.25;;;6.72;49.31
7760;BME280;3924;48.830;9.262;2023-02-27T12:38:54;99161.91;;;6.70;49.19
7760;BME280;3924;48.830;9.262;2023-02-27T12:41:40;99171.78;;;6.20;49.76
7760;BME280;3924;48.830;9.262;2023-02-27T12:47:33;99168.19;;;4.97;51.63
7760;BME280;3924;48.830;9.262;2023-02-27T12:50:11;99169.53;;;4.83;51.98
7760;BME280;3924;48.830;9.262;2023-02-27T12:53:13;99172.22;;;4.83;51.78
7760;BME280;3924;48.830;9.262;2023-02-27T12:55:49;99168.19;;;4.69;51.80
7760;BME280;3924;48.830;9.262;2023-02-27T12:58:27;99170.06;;;5.13;51.19
7760;BME280;3924;48.830;9.262;2023-02-27T13:01:05;99174.34;;;5.60;50.40
7760;BME280;3924;48.830;9.262;2023-02-27T13:03:55;99163.84;;;5.92;49.59
7760;BME280;3924;48.830;9.262;2023-02-27T13:14:28;99171.47;;;5.16;50.51
7760;BME280;3924;48.830;9.262;2023-02-27T13:17:45;99169.63;;;4.88;50.98
7760;BME280;3924;48.830;9.262;2023-02-27T13:22:43;99157.09;;;4.93;50.81
7760;BME280;3924;48.830;9.262;2023-02-27T13:25:15;99165.09;;;5.05;50.66
7760;BME280;3924;48.830;9.262;2023-02-27T13:30:25;99166.69;;;4.61;50.85
7760;BME280;3924;48.830;9.262;2023-02-27T13:33:28;99157.06;;;4.36;51.47
7760;BME280;3924;48.830;9.262;2023-02-27T13:38:46;99149.75;;;4.08;51.69
7760;BME280;3924;48.830;9.262;2023-02-27T13:43:47;99167.03;;;3.89;52.07
7760;BME280;3924;48.830;9.262;2023-02-27T13:46:31;99173.81;;;3.80;52.08
7760;BME280;3924;48.830;9.262;2023-02-27T13:59:29;99178.47;;;3.96;51.26
7760;BME280;3924;48.830;9.262;2023-02-27T14:02:24;99158.38;;;4.10;51.27
7760;BME280;3924;48.830;9.262;2023-02-27T14:04:57;99158.75;;;4.02;51.24
7760;BME280;3924;48.830;9.262;2023-02-27T14:07:30;99173.22;;;4.13;51.22
7760;BME280;3924;48.830;9.262;2023-02-27T14:12:41;99165.91;;;4.49;50.19
7760;BME280;3924;48.830;9.262;2023-02-27T14:17:43;99160.00;;;4.35;50.51
7760;BME280;3924;48.830;9.262;2023-02-27T14:20:12;99173.28;;;4.30;50.62
7760;BME280;3924;48.830;9.262;2023-02-27T14:26:16;99178.69;;;3.83;51.10
7760;BME280;3924;48.830;9.262;2023-02-27T14:31:31;99178.19;;;3.39;51.76
7760;BME280;3924;48.830;9.262;2023-02-27T14:34:00;99183.91;;;3.43;51.54
7760;BME280;3924;48.830;9.262;2023-02-27T14:36:34;99188.13;;;3.50;51.22
7760;BME280;3924;48.830;9.262;2023-02-27T14:39:04;99184.63;;;3.62;51.14
7760;BME280;3924;48.830;9.262;2023-02-27T14:41:47;99183.59;;;3.86;50.61
7760;BME280;3924;48.830;9.262;2023-02-27T14:44:23;99182.88;;;4.26;50.24
7760;BME280;3924;48.830;9.262;2023-02-27T14:46:54;99178.19;;;4.33;49.57
7760;BME280;3924;48.830;9.262;2023-02-27T14:49:28;99175.66;;;4.15;49.85
7760;BME280;3924;48.830;9.262;2023-02-27T14:51:55;99175.31;;;3.99;50.03
7760;BME280;3924;48.830;9.262;2023-02-27T14:54:24;99191.06;;;3.84;50.39
7760;BME280;3924;48.830;9.262;2023-02-27T14:56:59;99195.63;;;3.72;50.49
7760;BME280;3924;48.830;9.262;2023-02-27T15:01:56;99197.69;;;3.58;50.66
7760;BME280;3924;48.830;9.262;2023-02-27T15:04:25;99209.56;;;3.50;50.69
7760;BME280;3924;48.830;9.262;2023-02-27T15:06:54;99204.84;;;3.34;50.95
7760;BME280;3924;48.830;9.262;2023-02-27T15:09:24;99205.78;;;3.28;50.89
7760;BME280;3924;48.830;9.262;2023-02-27T15:11:55;99199.84;;;3.26;50.92
7760;BME280;3924;48.830;9.262;2023-02-27T15:14:33;99207.88;;;3.26;51.11
7760;BME280;3924;48.830;9.262;2023-02-27T15:17:01;99212.66;;;3.24;51.18
7760;BME280;3924;48.830;9.262;2023-02-27T15:19:30;99210.19;;;3.22;51.06
7760;BME280;3924;48.830;9.262;2023-02-27T15:22:01;99218.63;;;3.49;50.78
7760;BME280;3924;48.830;9.262;2023-02-27T15:24:33;99220.41;;;3.55;50.46
7760;BME280;3924;48.830;9.262;2023-02-27T15:27:20;99228.34;;;3.50;50.22
7760;BME280;3924;48.830;9.262;2023-02-27T15:29:56;99234.91;;;3.36;50.43
7760;BME280;3924;48.830;9.262;2023-02-27T15:32:30;99232.22;;;3.24;50.82
7760;BME280;3924;48.830;9.262;2023-02-27T15:35:00;99233.38;;;3.17;50.63
7760;BME280;3924;48.830;9.262;2023-02-27T15:37:32;99230.88;;;3.15;50.88
7760;BME280;3924;48.830;9.262;2023-02-27T15:40:00;99237.53;;;3.13;50.84
7760;BME280;3924;48.830;9.262;2023-02-27T15:42:29;99228.72;;;3.24;50.52
7760;BME280;3924;48.830;9.262;2023-02-27T15:44:57;99230.13;;;3.26;50.52
7760;BME280;3924;48.830;9.262;2023-02-27T15:47:27;99235.00;;;3.18;50.78
7760;BME280;3924;48.830;9.262;2023-02-27T15:50:09;99236.34;;;3.09;50.57
7760;BME280;3924;48.830;9.262;2023-02-27T15:52:49;99237.69;;;2.99;50.79
7760;BME280;3924;48.830;9.262;2023-02-27T15:55:23;99242.34;;;2.92;51.08
7760;BME280;3924;48.830;9.262;2023-02-27T15:57:51;99247.53;;;2.87;51.05
7760;BME280;3924;48.830;9.262;2023-02-27T16:00:30;99248.44;;;2.81;50.95